Marshall Don Hunter Sr Airport Marshall US
ICAO: PADM
IATA:
Category: Medium
Scheduled Services:

Elevation: 103 ft
TransAlt. 18000 ft.

Airport Communications:
ANCHORAGE CNTR:132.3
CTAF:122.9
ST MARYS RDO:124

PADM Zoom In..

Runways:

(A) RW 07 length 3200 ft width 100 ft
---- / hdg 70

(B) RW 25 length 3200 ft width 100 ft
---- / hdg 250

Location; PADM
Day. 29 / Time. 03.02 Zulu
* Altimeter: 29.83
* Temperature: 13° c. 55.4°f.
* Wind from: 200° Speed 06 kn.
Dewpoint: 01° c.
Visibility: 10 Statute Miles.
Clouds: Broken 6000 ft.

PADM 290302Z AUTO 20006KT 10SM BKN060 13/01 A2983 RMK AO2 SLP109 T01330011 58021


Wind From 200°
Speed 06 kn.

 
 
jpsmedia.com for Web Design worldairports.se 2018   terms of use